createdAt,value
2016-10-18T00:01:00.185Z,0
2016-10-18T00:02:11.413Z,0
2016-10-18T00:03:22.301Z,0
2016-10-18T00:04:33.012Z,0
2016-10-18T00:05:43.706Z,0
2016-10-18T00:06:54.418Z,0
2016-10-18T00:08:05.115Z,0
2016-10-18T00:09:15.833Z,0
2016-10-18T00:10:26.550Z,0
2016-10-18T00:11:37.268Z,0
2016-10-18T00:12:47.991Z,0
2016-10-18T00:13:58.707Z,0
2016-10-18T00:15:09.967Z,0
2016-10-18T00:16:20.694Z,0
2016-10-18T00:17:31.974Z,0
2016-10-18T00:18:42.699Z,0
2016-10-18T00:19:53.419Z,0
2016-10-18T00:21:04.124Z,0
2016-10-18T00:22:14.839Z,0
2016-10-18T00:23:25.550Z,0
2016-10-18T00:24:36.270Z,0
2016-10-18T00:25:47.004Z,0
2016-10-18T00:26:57.763Z,0
2016-10-18T00:28:08.478Z,0
2016-10-18T00:29:19.179Z,0
2016-10-18T00:30:29.885Z,0
2016-10-18T00:31:40.590Z,0
2016-10-18T00:32:51.327Z,0
2016-10-18T00:34:02.016Z,0
2016-10-18T00:35:13.280Z,0
2016-10-18T00:36:24.381Z,0
2016-10-18T00:37:35.092Z,0
2016-10-18T00:38:45.781Z,0
2016-10-18T00:39:56.529Z,0
2016-10-18T00:41:07.785Z,0
2016-10-18T00:42:18.539Z,0
2016-10-18T00:43:29.246Z,0
2016-10-18T00:44:39.949Z,0
2016-10-18T00:45:50.700Z,0
2016-10-18T00:47:01.467Z,0
2016-10-18T00:48:12.192Z,0
2016-10-18T00:49:23.469Z,0
2016-10-18T00:50:34.168Z,0
2016-10-18T00:51:44.890Z,0
2016-10-18T00:52:55.606Z,0
2016-10-18T00:54:06.336Z,0
2016-10-18T00:55:17.036Z,0
2016-10-18T00:56:27.740Z,0
2016-10-18T00:57:38.441Z,0
2016-10-18T00:58:49.206Z,0
2016-10-18T00:59:59.922Z,0
2016-10-18T01:01:10.626Z,0
2016-10-18T01:02:21.321Z,0
2016-10-18T01:03:32.023Z,0
2016-10-18T01:04:42.718Z,0
2016-10-18T01:05:53.408Z,0
2016-10-18T01:07:04.119Z,0
2016-10-18T01:08:14.898Z,0
2016-10-18T01:09:25.620Z,0
2016-10-18T01:10:36.425Z,0
2016-10-18T01:11:47.199Z,0
2016-10-18T01:12:57.912Z,0
2016-10-18T01:14:08.627Z,0
2016-10-18T01:15:19.335Z,0
2016-10-18T01:16:30.058Z,0
2016-10-18T01:17:40.777Z,0
2016-10-18T01:18:51.514Z,0
2016-10-18T01:20:02.785Z,0
2016-10-18T01:21:13.507Z,0
2016-10-18T01:22:24.280Z,0
2016-10-18T01:23:34.980Z,0
2016-10-18T01:24:45.761Z,0
2016-10-18T01:25:56.469Z,0
2016-10-18T01:27:07.162Z,0
2016-10-18T01:28:17.917Z,0
2016-10-18T01:29:28.619Z,0
2016-10-18T01:30:39.326Z,0
2016-10-18T01:31:50.032Z,0
2016-10-18T01:33:00.781Z,0
2016-10-18T01:34:11.516Z,0
2016-10-18T01:35:22.209Z,0
2016-10-18T01:36:32.928Z,0
2016-10-18T01:37:43.663Z,0
2016-10-18T01:38:54.368Z,0
2016-10-18T01:40:05.087Z,0
2016-10-18T01:41:15.790Z,0
2016-10-18T01:42:26.504Z,0
2016-10-18T01:43:37.210Z,0
2016-10-18T01:44:47.946Z,0
2016-10-18T01:45:58.643Z,0
2016-10-18T01:47:09.336Z,0
2016-10-18T01:48:20.046Z,0
2016-10-18T01:49:30.784Z,0
2016-10-18T01:50:41.992Z,0
2016-10-18T01:51:52.718Z,0
2016-10-18T01:53:03.404Z,0
2016-10-18T01:54:14.122Z,0
2016-10-18T01:55:24.831Z,0
2016-10-18T01:56:35.564Z,0
2016-10-18T01:57:46.319Z,0
2016-10-18T01:58:57.080Z,0
2016-10-18T02:00:07.805Z,0
2016-10-18T02:01:18.515Z,0
2016-10-18T02:02:29.238Z,0
2016-10-18T02:03:39.955Z,0
2016-10-18T02:04:50.668Z,0
2016-10-18T02:06:01.377Z,0
2016-10-18T02:07:12.104Z,0
2016-10-18T02:08:22.827Z,0
2016-10-18T02:09:33.518Z,0
2016-10-18T02:10:44.237Z,0
2016-10-18T02:11:54.950Z,0
2016-10-18T02:13:05.650Z,0
2016-10-18T02:14:16.334Z,0
2016-10-18T02:15:27.099Z,0
2016-10-18T02:16:37.802Z,0
2016-10-18T02:17:48.503Z,0
2016-10-18T02:18:59.230Z,0
2016-10-18T02:20:09.937Z,0
2016-10-18T02:21:20.656Z,0
2016-10-18T02:22:31.402Z,0
2016-10-18T02:23:42.150Z,0
2016-10-18T02:24:52.894Z,0
2016-10-18T02:26:03.616Z,0
2016-10-18T02:27:14.372Z,0
2016-10-18T02:28:25.060Z,0
2016-10-18T02:29:36.287Z,0
2016-10-18T02:30:47.017Z,0
2016-10-18T02:31:57.728Z,0
2016-10-18T02:33:08.423Z,0
2016-10-18T02:34:19.109Z,0
2016-10-18T02:35:29.812Z,0
2016-10-18T02:36:40.489Z,0
2016-10-18T02:37:51.189Z,0
2016-10-18T02:39:01.924Z,0
2016-10-18T02:40:12.690Z,0
2016-10-18T02:41:23.381Z,0
2016-10-18T02:42:34.104Z,0
2016-10-18T02:43:44.862Z,0
2016-10-18T02:44:55.574Z,0
2016-10-18T02:46:06.263Z,0
2016-10-18T02:47:17.483Z,0
2016-10-18T02:48:28.202Z,0
2016-10-18T02:49:38.908Z,0
2016-10-18T02:50:49.592Z,0
2016-10-18T02:52:00.284Z,0
2016-10-18T02:53:10.994Z,0
2016-10-18T02:54:21.741Z,0
2016-10-18T02:55:32.482Z,0
2016-10-18T02:56:43.187Z,0
2016-10-18T02:57:53.928Z,0
2016-10-18T02:59:04.635Z,0
2016-10-18T03:00:15.380Z,0
2016-10-18T03:01:26.094Z,0
2016-10-18T03:02:36.778Z,0
2016-10-18T03:03:47.484Z,0
2016-10-18T03:04:58.204Z,0
2016-10-18T03:06:08.901Z,0
2016-10-18T03:07:19.593Z,0
2016-10-18T03:08:30.339Z,0
2016-10-18T03:09:41.598Z,0
2016-10-18T03:10:52.306Z,0
2016-10-18T03:12:03.022Z,0
2016-10-18T03:13:13.748Z,0
2016-10-18T03:14:24.554Z,0
2016-10-18T03:15:35.262Z,0
2016-10-18T03:16:45.965Z,0
2016-10-18T03:17:56.693Z,0
2016-10-18T03:19:07.421Z,0
2016-10-18T03:20:18.665Z,0
2016-10-18T03:21:29.379Z,0
2016-10-18T03:22:40.139Z,0
2016-10-18T03:23:51.351Z,0
2016-10-18T03:25:02.074Z,0
2016-10-18T03:26:12.796Z,0
2016-10-18T03:27:23.529Z,0
2016-10-18T03:28:34.235Z,0
2016-10-18T03:29:44.984Z,0
2016-10-18T03:30:55.683Z,0
2016-10-18T03:32:06.397Z,0
2016-10-18T03:33:17.143Z,0
2016-10-18T03:34:28.929Z,0
2016-10-18T03:35:39.651Z,0
2016-10-18T03:36:50.363Z,0
2016-10-18T03:38:01.067Z,0
2016-10-18T03:39:12.348Z,0
2016-10-18T03:40:23.097Z,0
2016-10-18T03:41:33.836Z,0
2016-10-18T03:42:44.562Z,0
2016-10-18T03:43:55.276Z,0
2016-10-18T03:45:06.504Z,0
2016-10-18T03:46:17.230Z,0
2016-10-18T03:47:27.949Z,0
2016-10-18T03:48:38.683Z,0
2016-10-18T03:49:49.392Z,0
2016-10-18T03:51:00.109Z,0
2016-10-18T03:52:11.319Z,0
2016-10-18T03:53:22.042Z,0
2016-10-18T03:54:32.728Z,0
2016-10-18T03:55:43.431Z,0
2016-10-18T03:56:54.136Z,0
2016-10-18T03:58:04.836Z,0
2016-10-18T03:59:15.512Z,0
2016-10-18T04:00:26.215Z,0
2016-10-18T04:01:36.911Z,0
2016-10-18T04:02:47.671Z,0
2016-10-18T04:03:58.403Z,0
2016-10-18T04:05:09.139Z,0
2016-10-18T04:06:19.911Z,0
2016-10-18T04:07:30.632Z,0
2016-10-18T04:08:41.395Z,0
2016-10-18T04:09:52.130Z,0
2016-10-18T04:11:02.848Z,0
2016-10-18T04:12:13.586Z,0
2016-10-18T04:13:24.296Z,0
2016-10-18T04:14:35.002Z,0
2016-10-18T04:15:45.779Z,0
2016-10-18T04:16:56.480Z,0
2016-10-18T04:18:07.223Z,0
2016-10-18T04:19:17.941Z,0
2016-10-18T04:20:29.149Z,0
2016-10-18T04:21:39.929Z,0
2016-10-18T04:22:50.666Z,0
2016-10-18T04:24:01.375Z,0
2016-10-18T04:25:12.092Z,0
2016-10-18T04:26:22.782Z,0
2016-10-18T04:27:33.494Z,0
2016-10-18T04:28:44.718Z,0
2016-10-18T04:29:55.434Z,0
2016-10-18T04:31:06.128Z,0
2016-10-18T04:32:16.833Z,0
2016-10-18T04:33:27.509Z,0
2016-10-18T04:34:38.195Z,0
2016-10-18T04:35:48.913Z,0
2016-10-18T04:36:59.616Z,0
2016-10-18T04:38:10.367Z,0
2016-10-18T04:39:21.059Z,0
2016-10-18T04:40:31.787Z,0
2016-10-18T04:41:42.487Z,0
2016-10-18T04:42:53.188Z,0
2016-10-18T04:44:03.895Z,0
2016-10-18T04:45:14.621Z,0
2016-10-18T04:46:25.352Z,0
2016-10-18T04:47:36.081Z,0
2016-10-18T04:48:46.777Z,0
2016-10-18T04:49:58.025Z,0
2016-10-18T04:51:08.760Z,0
2016-10-18T04:52:19.481Z,0
2016-10-18T04:53:30.229Z,0
2016-10-18T04:54:41.426Z,0
2016-10-18T04:55:52.638Z,0
2016-10-18T04:57:03.333Z,0
2016-10-18T04:58:14.023Z,0
2016-10-18T04:59:24.737Z,0
2016-10-18T05:00:35.419Z,0
2016-10-18T05:01:46.095Z,0
2016-10-18T05:02:56.799Z,0
2016-10-18T05:04:07.577Z,0
2016-10-18T05:05:18.298Z,0
2016-10-18T05:06:29.032Z,0
2016-10-18T05:07:40.491Z,0
2016-10-18T05:08:51.193Z,0
2016-10-18T05:10:01.897Z,0
2016-10-18T05:11:12.599Z,0
2016-10-18T05:12:23.295Z,0
2016-10-18T05:13:34.022Z,0
2016-10-18T05:14:44.731Z,0
2016-10-18T05:15:55.416Z,0
2016-10-18T05:17:06.110Z,0
2016-10-18T05:18:16.788Z,0
2016-10-18T05:19:27.496Z,0
2016-10-18T05:20:38.200Z,0
2016-10-18T05:21:48.907Z,0
2016-10-18T05:22:59.616Z,0
2016-10-18T05:24:10.307Z,0
2016-10-18T05:25:21.001Z,0
2016-10-18T05:26:31.689Z,0
2016-10-18T05:27:42.420Z,0
2016-10-18T05:28:53.135Z,0
2016-10-18T05:30:03.819Z,0
2016-10-18T05:31:14.498Z,0
2016-10-18T05:32:25.273Z,0
2016-10-18T05:33:35.976Z,0
2016-10-18T05:34:46.669Z,0
2016-10-18T05:35:57.351Z,0
2016-10-18T05:37:08.067Z,0
2016-10-18T05:38:18.747Z,0
2016-10-18T05:39:29.458Z,0
2016-10-18T05:40:40.174Z,0
2016-10-18T05:41:51.361Z,0
2016-10-18T05:43:02.071Z,0
2016-10-18T05:44:12.773Z,0
2016-10-18T05:45:25.392Z,0
2016-10-18T05:46:36.074Z,0
2016-10-18T05:47:47.286Z,0
2016-10-18T05:48:57.985Z,0
2016-10-18T05:50:08.668Z,0
2016-10-18T05:51:19.384Z,0
2016-10-18T05:52:30.080Z,0
2016-10-18T05:53:40.773Z,0
2016-10-18T05:54:51.477Z,0
2016-10-18T05:56:02.174Z,0
2016-10-18T05:57:12.923Z,0
2016-10-18T05:58:23.620Z,0
2016-10-18T05:59:34.302Z,0
2016-10-18T06:00:45.039Z,0
2016-10-18T06:01:55.767Z,0
2016-10-18T06:03:06.471Z,0
2016-10-18T06:04:17.179Z,0
2016-10-18T06:05:28.388Z,0
2016-10-18T06:06:39.105Z,0
2016-10-18T06:07:49.823Z,0
2016-10-18T06:09:00.559Z,0
2016-10-18T06:10:11.307Z,0
2016-10-18T06:11:22.033Z,0
2016-10-18T06:12:32.744Z,0
2016-10-18T06:13:43.441Z,0
2016-10-18T06:14:54.158Z,0
2016-10-18T06:16:05.127Z,0
2016-10-18T06:17:15.827Z,0
2016-10-18T06:18:26.554Z,0
2016-10-18T06:19:37.270Z,0
2016-10-18T06:20:47.982Z,0
2016-10-18T06:21:58.700Z,0
2016-10-18T06:23:09.436Z,0
2016-10-18T06:24:20.172Z,0
2016-10-18T06:25:30.932Z,0
2016-10-18T06:26:41.661Z,0
2016-10-18T06:27:52.408Z,0
2016-10-18T06:29:03.120Z,0
2016-10-18T06:30:13.835Z,0
2016-10-18T06:31:24.536Z,0
2016-10-18T06:32:35.234Z,0
2016-10-18T06:33:45.958Z,0
2016-10-18T06:34:56.671Z,0
2016-10-18T06:36:07.395Z,0
2016-10-18T06:37:18.080Z,0
2016-10-18T06:38:29.304Z,0
2016-10-18T06:39:40.026Z,0
2016-10-18T06:40:50.741Z,0
2016-10-18T06:42:01.450Z,0
2016-10-18T06:43:12.144Z,0
2016-10-18T06:44:22.848Z,0
2016-10-18T06:45:33.603Z,0
2016-10-18T06:46:44.317Z,0
2016-10-18T06:47:55.047Z,0
2016-10-18T06:49:05.781Z,0
2016-10-18T06:50:16.556Z,0
2016-10-18T06:51:27.240Z,0
2016-10-18T06:52:37.934Z,0
2016-10-18T06:53:48.641Z,0
2016-10-18T06:54:59.358Z,0
2016-10-18T06:56:10.058Z,0
2016-10-18T06:57:20.761Z,0
2016-10-18T06:58:31.484Z,0
2016-10-18T06:59:42.194Z,0
2016-10-18T07:00:52.892Z,0
2016-10-18T07:02:03.583Z,0
2016-10-18T07:03:14.315Z,0
2016-10-18T07:04:25.029Z,0
2016-10-18T07:05:35.733Z,0
2016-10-18T07:06:46.461Z,0
2016-10-18T07:07:57.193Z,0
2016-10-18T07:09:07.918Z,0
2016-10-18T07:10:18.679Z,0
2016-10-18T07:11:29.383Z,0
2016-10-18T07:12:40.094Z,0
2016-10-18T07:13:50.802Z,0
2016-10-18T07:15:01.501Z,0
2016-10-18T07:16:12.227Z,0
2016-10-18T07:17:22.946Z,0
2016-10-18T07:18:33.659Z,0
2016-10-18T07:19:44.377Z,0
2016-10-18T07:20:55.125Z,0
2016-10-18T07:22:05.854Z,0
2016-10-18T07:23:16.562Z,0
2016-10-18T07:24:27.348Z,0
2016-10-18T07:25:38.045Z,0
2016-10-18T07:26:48.769Z,0
2016-10-18T07:27:59.470Z,0
2016-10-18T07:29:10.176Z,0
2016-10-18T07:30:20.896Z,0
2016-10-18T07:31:31.624Z,0
2016-10-18T07:32:42.366Z,0
2016-10-18T07:33:53.076Z,0
2016-10-18T07:35:03.778Z,0
2016-10-18T07:36:14.487Z,0
2016-10-18T07:37:25.189Z,0
2016-10-18T07:38:35.880Z,0
2016-10-18T07:39:46.621Z,0
2016-10-18T07:40:57.397Z,0
2016-10-18T07:42:08.114Z,0
2016-10-18T07:43:18.820Z,0
2016-10-18T07:44:29.518Z,0
2016-10-18T07:45:40.269Z,0
2016-10-18T07:46:50.996Z,0
2016-10-18T07:48:01.686Z,0
2016-10-18T07:49:12.404Z,0
2016-10-18T07:50:23.114Z,0
2016-10-18T07:51:33.841Z,0
2016-10-18T07:52:44.544Z,0
2016-10-18T07:53:55.252Z,0
2016-10-18T07:55:05.966Z,0
2016-10-18T07:56:16.640Z,0
2016-10-18T07:57:27.385Z,0
2016-10-18T07:58:38.148Z,0
2016-10-18T07:59:48.852Z,0
2016-10-18T08:00:59.566Z,0
2016-10-18T08:02:10.248Z,0
2016-10-18T08:03:21.469Z,0
2016-10-18T08:04:32.176Z,0
2016-10-18T08:05:42.897Z,0
2016-10-18T08:06:53.641Z,0
2016-10-18T08:08:04.600Z,0
2016-10-18T08:09:15.823Z,0
2016-10-18T08:10:26.741Z,0
2016-10-18T08:11:37.983Z,0
2016-10-18T08:12:48.704Z,0
2016-10-18T08:13:59.397Z,0
2016-10-18T08:15:10.095Z,0
2016-10-18T08:16:20.799Z,0
2016-10-18T08:17:31.521Z,0
2016-10-18T08:18:42.207Z,0
2016-10-18T08:19:52.917Z,0
2016-10-18T08:21:03.632Z,0
2016-10-18T08:22:14.329Z,5
2016-10-18T08:23:25.170Z,5
2016-10-18T08:24:36.391Z,5
2016-10-18T08:25:47.119Z,10
2016-10-18T08:26:57.845Z,10
2016-10-18T08:28:08.563Z,15
2016-10-18T08:29:19.305Z,15
2016-10-18T08:30:30.006Z,15
2016-10-18T08:31:40.704Z,20
2016-10-18T08:32:51.417Z,20
2016-10-18T08:34:02.114Z,25
2016-10-18T08:35:12.834Z,25
2016-10-18T08:36:23.538Z,30
2016-10-18T08:37:34.239Z,35
2016-10-18T08:38:44.987Z,40
2016-10-18T08:39:55.687Z,45
2016-10-18T08:41:06.390Z,50
2016-10-18T08:42:17.128Z,60
2016-10-18T08:43:27.839Z,70
2016-10-18T08:44:39.054Z,80
2016-10-18T08:45:49.774Z,85
2016-10-18T08:47:00.505Z,95
2016-10-18T08:48:11.711Z,100
2016-10-18T08:49:22.449Z,110
2016-10-18T08:50:33.189Z,115
2016-10-18T08:51:43.901Z,125
2016-10-18T08:52:54.610Z,135
2016-10-18T08:54:05.319Z,140
2016-10-18T08:55:16.001Z,145
2016-10-18T08:56:26.781Z,155
2016-10-18T08:57:37.468Z,165
2016-10-18T08:58:48.184Z,175
2016-10-18T08:59:58.896Z,180
2016-10-18T09:01:09.650Z,190
2016-10-18T09:02:20.372Z,195
2016-10-18T09:03:31.126Z,205
2016-10-18T09:04:41.858Z,210
2016-10-18T09:05:52.571Z,215
2016-10-18T09:07:03.268Z,230
2016-10-18T09:08:13.976Z,250
2016-10-18T09:09:24.678Z,265
2016-10-18T09:10:35.372Z,275
2016-10-18T09:11:46.114Z,265
2016-10-18T09:12:56.845Z,265
2016-10-18T09:14:07.573Z,275
2016-10-18T09:15:18.276Z,280
2016-10-18T09:16:28.977Z,290
2016-10-18T09:17:39.675Z,300
2016-10-18T09:18:50.389Z,310
2016-10-18T09:20:01.095Z,325
2016-10-18T09:21:11.793Z,340
2016-10-18T09:22:23.017Z,350
2016-10-18T09:23:33.716Z,375
2016-10-18T09:24:44.420Z,395
2016-10-18T09:25:55.133Z,410
2016-10-18T09:27:05.827Z,420
2016-10-18T09:28:16.540Z,440
2016-10-18T09:29:27.306Z,460
2016-10-18T09:30:38.013Z,485
2016-10-18T09:31:48.715Z,495
2016-10-18T09:32:59.437Z,515
2016-10-18T09:34:10.150Z,540
2016-10-18T09:35:20.909Z,560
2016-10-18T09:36:31.605Z,595
2016-10-18T09:37:42.292Z,605
2016-10-18T09:38:53.019Z,620
2016-10-18T09:40:03.799Z,630
2016-10-18T09:41:15.023Z,645
2016-10-18T09:42:25.729Z,670
2016-10-18T09:43:36.438Z,725
2016-10-18T09:44:47.138Z,840
2016-10-18T09:45:57.872Z,955
2016-10-18T09:47:08.572Z,955
2016-10-18T09:48:19.293Z,905
2016-10-18T09:49:30.034Z,870
2016-10-18T09:50:40.748Z,875
2016-10-18T09:51:51.461Z,880
2016-10-18T09:53:02.188Z,915
2016-10-18T09:54:12.900Z,895
2016-10-18T09:55:23.616Z,910
2016-10-18T09:56:34.912Z,930
2016-10-18T09:57:45.609Z,970
2016-10-18T09:58:56.329Z,1055
2016-10-18T10:00:07.047Z,1060
2016-10-18T10:01:17.768Z,1005
2016-10-18T10:02:28.470Z,1035
2016-10-18T10:03:39.205Z,1090
2016-10-18T10:04:49.953Z,1100
2016-10-18T10:06:00.656Z,1215
2016-10-18T10:07:11.362Z,1270
2016-10-18T10:08:22.059Z,1095
2016-10-18T10:09:32.771Z,1010
2016-10-18T10:10:43.482Z,1015
2016-10-18T10:11:54.176Z,1010
2016-10-18T10:13:04.896Z,915
2016-10-18T10:14:15.608Z,855
2016-10-18T10:15:26.428Z,870
2016-10-18T10:16:37.239Z,1035
2016-10-18T10:17:47.931Z,1140
2016-10-18T10:18:58.646Z,1230
2016-10-18T10:20:09.368Z,1210
2016-10-18T10:21:20.563Z,1095
2016-10-18T10:22:31.286Z,975
2016-10-18T10:23:42.005Z,895
2016-10-18T10:24:53.596Z,870
2016-10-18T10:26:04.831Z,860
2016-10-18T10:27:15.556Z,870
2016-10-18T10:28:26.270Z,865
2016-10-18T10:29:36.998Z,840
2016-10-18T10:30:48.221Z,855
2016-10-18T10:31:58.933Z,855
2016-10-18T10:33:10.177Z,865
2016-10-18T10:34:20.874Z,870
2016-10-18T10:35:31.617Z,875
2016-10-18T10:36:42.328Z,885
2016-10-18T10:37:53.566Z,890
2016-10-18T10:39:04.269Z,900
2016-10-18T10:40:14.999Z,935
2016-10-18T10:41:25.722Z,970
2016-10-18T10:42:36.437Z,995
2016-10-18T10:43:47.144Z,1015
2016-10-18T10:44:57.879Z,1025
2016-10-18T10:46:08.635Z,1035
2016-10-18T10:47:19.352Z,1030
2016-10-18T10:48:30.124Z,1000
2016-10-18T10:49:40.840Z,1005
2016-10-18T10:50:51.548Z,965
2016-10-18T10:52:02.290Z,960
2016-10-18T10:53:12.996Z,1025
2016-10-18T10:54:23.720Z,1120
2016-10-18T10:55:34.448Z,1150
2016-10-18T10:56:45.185Z,1490
2016-10-18T10:57:55.886Z,1490
2016-10-18T10:59:06.619Z,1525
2016-10-18T11:00:17.330Z,1645
2016-10-18T11:01:28.084Z,1620
2016-10-18T11:02:38.856Z,1710
2016-10-18T11:03:49.604Z,1650
2016-10-18T11:05:00.314Z,1480
2016-10-18T11:06:11.029Z,1475
2016-10-18T11:07:21.728Z,1560
2016-10-18T11:08:32.476Z,1660
2016-10-18T11:09:43.178Z,1780
2016-10-18T11:10:53.893Z,1680
2016-10-18T11:12:04.818Z,1655
2016-10-18T11:13:15.548Z,1655
2016-10-18T11:14:26.290Z,1665
2016-10-18T11:15:37.007Z,1590
2016-10-18T11:16:47.753Z,1570
2016-10-18T11:17:58.515Z,1695
2016-10-18T11:19:09.243Z,1770
2016-10-18T11:20:19.958Z,1970
2016-10-18T11:21:30.699Z,2220
2016-10-18T11:22:41.435Z,2350
2016-10-18T11:23:52.154Z,2375
2016-10-18T11:25:02.886Z,2385
2016-10-18T11:26:13.625Z,2420
2016-10-18T11:27:24.321Z,2295
2016-10-18T11:28:35.046Z,2425
2016-10-18T11:29:45.758Z,2390
2016-10-18T11:30:56.570Z,2530
2016-10-18T11:32:07.310Z,2500
2016-10-18T11:33:18.363Z,2525
2016-10-18T11:34:29.107Z,2740
2016-10-18T11:35:39.888Z,2670
2016-10-18T11:36:50.659Z,2715
2016-10-18T11:38:01.409Z,2835
2016-10-18T11:39:12.130Z,2790
2016-10-18T11:40:22.866Z,2825
2016-10-18T11:41:33.589Z,3225
2016-10-18T11:42:44.299Z,3225
2016-10-18T11:43:55.022Z,3175
2016-10-18T11:45:05.778Z,3020
2016-10-18T11:46:16.480Z,2570
2016-10-18T11:47:27.201Z,2425
2016-10-18T11:48:38.443Z,2575
2016-10-18T11:49:49.177Z,2470
2016-10-18T11:50:59.891Z,2470
2016-10-18T11:52:10.642Z,2490
2016-10-18T11:53:21.419Z,2310
2016-10-18T11:54:32.142Z,2325
2016-10-18T11:55:42.875Z,2610
2016-10-18T11:56:53.601Z,2625
2016-10-18T11:58:04.345Z,2740
2016-10-18T11:59:15.093Z,2660
2016-10-18T12:00:26.344Z,2760
2016-10-18T12:01:37.073Z,2680
2016-10-18T12:02:47.805Z,2550
2016-10-18T12:03:58.492Z,2835
2016-10-18T12:05:09.183Z,2695
2016-10-18T12:06:19.924Z,2740
2016-10-18T12:07:30.645Z,2785
2016-10-18T12:08:41.349Z,2850
2016-10-18T12:09:52.062Z,3060
2016-10-18T12:11:02.761Z,2920
2016-10-18T12:12:13.481Z,3000
2016-10-18T12:13:24.196Z,2995
2016-10-18T12:14:34.943Z,3185
2016-10-18T12:15:45.668Z,3340
2016-10-18T12:16:57.411Z,3120
2016-10-18T12:18:08.669Z,3320
2016-10-18T12:19:20.059Z,2910
2016-10-18T12:20:31.269Z,2745
2016-10-18T12:21:42.434Z,3100
2016-10-18T12:22:53.631Z,3190
2016-10-18T12:24:04.841Z,3265
2016-10-18T12:25:16.034Z,3290
2016-10-18T12:26:27.235Z,3205
2016-10-18T12:27:38.439Z,3100
2016-10-18T12:28:49.697Z,3025
2016-10-18T12:30:00.937Z,3025
2016-10-18T12:31:12.142Z,2950
2016-10-18T12:32:23.617Z,2940
2016-10-18T12:33:34.858Z,2725
2016-10-18T12:34:46.020Z,1900
2016-10-18T12:35:57.342Z,2685
2016-10-18T12:37:08.532Z,2970
2016-10-18T12:38:19.722Z,3035
2016-10-18T12:39:30.915Z,2860
2016-10-18T12:40:42.100Z,3345
2016-10-18T12:41:53.273Z,3385
2016-10-18T12:43:04.450Z,3340
2016-10-18T12:44:15.644Z,3275
2016-10-18T12:45:26.859Z,3110
2016-10-18T12:46:38.038Z,3335
2016-10-18T12:47:49.232Z,3050
2016-10-18T12:49:00.472Z,3060
2016-10-18T12:50:11.682Z,3345
2016-10-18T12:51:22.927Z,3730
2016-10-18T12:52:34.115Z,3510
2016-10-18T12:53:45.296Z,3440
2016-10-18T12:54:56.486Z,3695
2016-10-18T12:56:07.741Z,3360
2016-10-18T12:57:18.927Z,3270
2016-10-18T12:58:30.153Z,3400
2016-10-18T12:59:41.353Z,3430
2016-10-18T13:00:52.530Z,3415
2016-10-18T13:02:03.797Z,3250
2016-10-18T13:03:14.544Z,2905
2016-10-18T13:04:25.261Z,3160
2016-10-18T13:05:36.025Z,3305
2016-10-18T13:06:46.748Z,3905
2016-10-18T13:07:57.524Z,3615
2016-10-18T13:09:08.756Z,3465
2016-10-18T13:10:19.481Z,3785
2016-10-18T13:11:30.186Z,3750
2016-10-18T13:12:40.946Z,3765
2016-10-18T13:13:51.699Z,3480
2016-10-18T13:15:02.399Z,3335
2016-10-18T13:16:13.126Z,3275
2016-10-18T13:17:24.679Z,3700
2016-10-18T13:18:35.405Z,3770
2016-10-18T13:19:46.659Z,4075
2016-10-18T13:20:57.381Z,3515
2016-10-18T13:22:08.091Z,2745
2016-10-18T13:23:18.848Z,3520
2016-10-18T13:24:30.102Z,2440
2016-10-18T13:25:40.819Z,2430
2016-10-18T13:26:52.101Z,2770
2016-10-18T13:28:02.816Z,3285
2016-10-18T13:29:13.552Z,2460
2016-10-18T13:30:24.683Z,2805
2016-10-18T13:31:35.956Z,2915
2016-10-18T13:32:46.748Z,3830
2016-10-18T13:33:57.490Z,2800
2016-10-18T13:35:08.731Z,2610
2016-10-18T13:36:19.562Z,3295
2016-10-18T13:37:30.275Z,3490
2016-10-18T13:38:41.003Z,3555
2016-10-18T13:39:52.315Z,4245
2016-10-18T13:41:03.040Z,4200
2016-10-18T13:42:13.784Z,4320
2016-10-18T13:43:25.012Z,4230
2016-10-18T13:44:35.754Z,4235
2016-10-18T13:45:47.045Z,4090
2016-10-18T13:46:57.829Z,4235
2016-10-18T13:48:08.570Z,4055
2016-10-18T13:49:20.652Z,3655
2016-10-18T13:50:31.896Z,3605
2016-10-18T13:51:42.594Z,3660
2016-10-18T13:52:53.323Z,4340
2016-10-18T13:54:04.064Z,4125
2016-10-18T13:55:15.271Z,4070
2016-10-18T13:56:26.126Z,4370
2016-10-18T13:57:37.401Z,3890
2016-10-18T13:58:48.109Z,3540
2016-10-18T13:59:58.853Z,4410
2016-10-18T14:01:09.568Z,4070
2016-10-18T14:02:20.289Z,4065
2016-10-18T14:03:31.026Z,4475
2016-10-18T14:04:41.807Z,4115
2016-10-18T14:05:52.524Z,3755
2016-10-18T14:07:03.277Z,4350
2016-10-18T14:08:13.999Z,4420
2016-10-18T14:09:24.746Z,4240
2016-10-18T14:10:35.461Z,4215
2016-10-18T14:11:46.162Z,4045
2016-10-18T14:12:56.924Z,4165
2016-10-18T14:14:07.651Z,4330
2016-10-18T14:15:18.972Z,4380
2016-10-18T14:16:30.216Z,4000
2016-10-18T14:17:40.943Z,3925
2016-10-18T14:18:51.704Z,4030
2016-10-18T14:20:02.477Z,4525
2016-10-18T14:21:13.195Z,4330
2016-10-18T14:22:23.949Z,4155
2016-10-18T14:23:34.652Z,4345
2016-10-18T14:24:45.886Z,4370
2016-10-18T14:25:56.584Z,4175
2016-10-18T14:27:07.343Z,4495
2016-10-18T14:28:18.069Z,4485
2016-10-18T14:29:28.810Z,4360
2016-10-18T14:30:39.537Z,4450
2016-10-18T14:31:50.801Z,4305
2016-10-18T14:33:01.549Z,4275
2016-10-18T14:34:12.282Z,4240
2016-10-18T14:35:22.979Z,3945
2016-10-18T14:36:33.708Z,4120
2016-10-18T14:37:44.415Z,4210
2016-10-18T14:38:55.155Z,4220
2016-10-18T14:40:05.878Z,4205
2016-10-18T14:41:16.598Z,4325
2016-10-18T14:42:27.876Z,4275
2016-10-18T14:43:38.626Z,3995
2016-10-18T14:44:49.899Z,4375
2016-10-18T14:46:00.622Z,4075
2016-10-18T14:47:11.353Z,4155
2016-10-18T14:48:22.070Z,4235
2016-10-18T14:49:33.340Z,4120
2016-10-18T14:50:44.063Z,3995
2016-10-18T14:51:54.798Z,4135
2016-10-18T14:53:05.520Z,4025
2016-10-18T14:54:16.271Z,4025
2016-10-18T14:55:27.012Z,4100
2016-10-18T14:56:37.712Z,4175
2016-10-18T14:57:48.454Z,4040
2016-10-18T14:58:59.218Z,4135
2016-10-18T15:00:11.357Z,4200
2016-10-18T15:01:22.098Z,4220
2016-10-18T15:02:32.836Z,4220
2016-10-18T15:03:43.554Z,4155
2016-10-18T15:04:54.299Z,4325
2016-10-18T15:06:05.012Z,4440
2016-10-18T15:07:15.756Z,4200
2016-10-18T15:08:26.508Z,4520
2016-10-18T15:09:37.252Z,4410
2016-10-18T15:10:47.974Z,4410
2016-10-18T15:11:58.701Z,4465
2016-10-18T15:13:09.467Z,4400
2016-10-18T15:14:20.181Z,4575
2016-10-18T15:15:30.914Z,4180
2016-10-18T15:16:41.637Z,4290
2016-10-18T15:17:52.377Z,4075
2016-10-18T15:19:03.132Z,4215
2016-10-18T15:20:13.863Z,4100
2016-10-18T15:21:24.591Z,4170
2016-10-18T15:22:35.320Z,4290
2016-10-18T15:23:46.042Z,4015
2016-10-18T15:24:56.761Z,4085
2016-10-18T15:26:08.042Z,3860
2016-10-18T15:27:18.758Z,3925
2016-10-18T15:28:29.471Z,3805
2016-10-18T15:29:40.258Z,3715
2016-10-18T15:30:50.970Z,3730
2016-10-18T15:32:01.778Z,3555
2016-10-18T15:33:12.507Z,3735
2016-10-18T15:34:23.776Z,3765
2016-10-18T15:35:34.485Z,3785
2016-10-18T15:36:45.234Z,3670
2016-10-18T15:37:55.963Z,3685
2016-10-18T15:39:06.733Z,3855
2016-10-18T15:40:17.439Z,3850
2016-10-18T15:41:28.162Z,3885
2016-10-18T15:42:38.868Z,4015
2016-10-18T15:43:49.592Z,4075
2016-10-18T15:45:00.339Z,3985
2016-10-18T15:46:11.222Z,4055
2016-10-18T15:47:22.461Z,3730
2016-10-18T15:48:33.683Z,3870
2016-10-18T15:49:44.445Z,3935
2016-10-18T15:50:55.192Z,1400
2016-10-18T15:52:05.933Z,1265
2016-10-18T15:53:16.639Z,1190
2016-10-18T15:54:27.366Z,1185
2016-10-18T15:55:38.089Z,1230
2016-10-18T15:56:48.824Z,1610
2016-10-18T15:58:00.079Z,4040
2016-10-18T15:59:10.798Z,3920
2016-10-18T16:00:21.543Z,3985
2016-10-18T16:01:32.794Z,4010
2016-10-18T16:02:43.517Z,4075
2016-10-18T16:03:54.734Z,3855
2016-10-18T16:05:05.984Z,4070
2016-10-18T16:06:16.689Z,4375
2016-10-18T16:07:27.494Z,4540
2016-10-18T16:08:38.254Z,4520
2016-10-18T16:09:48.975Z,4575
2016-10-18T16:10:59.698Z,4450
2016-10-18T16:12:10.475Z,4365
2016-10-18T16:13:21.238Z,4280
2016-10-18T16:14:31.957Z,4270
2016-10-18T16:15:42.670Z,1670
2016-10-18T16:16:53.391Z,3860
2016-10-18T16:18:04.136Z,3615
2016-10-18T16:19:15.772Z,3520
2016-10-18T16:20:26.505Z,3890
2016-10-18T16:21:37.236Z,3880
2016-10-18T16:22:47.964Z,4185
2016-10-18T16:23:59.210Z,3970
2016-10-18T16:25:09.931Z,3765
2016-10-18T16:26:20.663Z,3925
2016-10-18T16:58:35.909Z,2055
2016-10-18T16:59:46.626Z,1765
2016-10-18T17:00:57.387Z,1795
2016-10-18T17:02:08.668Z,1520
2016-10-18T17:03:19.376Z,1450
2016-10-18T17:04:30.098Z,1445
2016-10-18T17:05:40.825Z,2155
2016-10-18T17:06:51.581Z,2030
2016-10-18T17:08:02.329Z,1705
2016-10-18T17:09:13.071Z,1610